Time;durP1;ratioP1;P1;durP2;ratioP2;P2;SDS_P1;SDS_P2;PMS_P1;PMS_P2;Temp;Humidity;BMP_temperature;BMP_pressure;BME280_temperature;BME280_humidity;BME280_pressure;Samples;Min_cycle;Max_cycle;Signal;HPM_P1;HPM_P2
2022/03/22 00:01:54;;;;;;;17.85;9.45;;;;;;;16.25;39.65;102814.19;5037152;28;20407;-64
2022/03/22 00:04:21;;;;;;;18.85;9.93;;;;;;;16.26;39.49;102815.94;5019556;28;20044;-64
2022/03/22 00:06:47;;;;;;;17.67;9.27;;;;;;;16.22;39.12;102817.13;5035725;28;20021;-64
2022/03/22 00:09:13;;;;;;;21.83;9.65;;;;;;;16.17;39.73;102808.50;5019034;28;20036;-64
2022/03/22 00:11:40;;;;;;;19.42;9.02;;;;;;;16.18;39.34;102821.06;5035708;28;20021;-64
2022/03/22 00:14:08;;;;;;;18.65;9.27;;;;;;;16.12;39.59;102816.13;5019007;28;20518;-64
2022/03/22 00:16:36;;;;;;;20.30;9.52;;;;;;;16.09;39.40;102817.22;5019453;28;20415;-64
2022/03/22 00:19:01;;;;;;;16.15;9.05;;;;;;;16.07;39.84;102811.06;5019092;28;20079;-63
2022/03/22 00:21:28;;;;;;;23.58;9.45;;;;;;;16.03;39.29;102822.22;5036544;28;20422;-63
2022/03/22 00:23:54;;;;;;;18.77;11.05;;;;;;;16.02;40.37;102825.91;5018794;28;20025;-64
2022/03/22 00:26:20;;;;;;;18.40;9.48;;;;;;;15.98;39.07;102824.41;5036842;28;20099;-64
2022/03/22 00:28:45;;;;;;;23.02;10.13;;;;;;;15.91;39.35;102812.34;5035501;28;20483;-63
2022/03/22 00:31:11;;;;;;;27.92;10.50;;;;;;;15.90;39.17;102810.59;5036556;28;20033;-64
2022/03/22 00:33:37;;;;;;;21.88;10.10;;;;;;;15.91;40.47;102823.16;5018926;28;20025;-64
2022/03/22 00:36:04;;;;;;;19.75;9.32;;;;;;;15.85;39.90;102821.78;5036475;28;20021;-64
2022/03/22 00:38:31;;;;;;;16.55;8.65;;;;;;;15.82;39.10;102821.13;5035011;28;20441;-64
2022/03/22 00:40:58;;;;;;;15.32;8.65;;;;;;;15.77;40.63;102820.63;5018539;28;20104;-64
2022/03/22 00:43:24;;;;;;;18.75;8.98;;;;;;;15.71;40.21;102817.41;5018627;28;20025;-63
2022/03/22 00:45:51;;;;;;;20.35;9.65;;;;;;;15.68;38.84;102823.03;5034885;28;20029;-64
2022/03/22 00:48:17;;;;;;;18.10;9.07;;;;;;;15.60;39.49;102820.03;5034951;28;20025;-64
2022/03/22 00:50:47;;;;;;;26.35;9.80;;;;;;;15.60;39.40;102824.56;5017947;28;20416;-63
2022/03/22 00:53:15;;;;;;;22.77;8.48;;;;;;;15.55;39.86;102830.28;5034819;28;20021;-64
2022/03/22 00:55:41;;;;;;;19.17;9.98;;;;;;;15.53;40.18;102834.94;5034501;28;20029;-63
2022/03/22 00:58:07;;;;;;;20.50;10.13;;;;;;;15.50;39.80;102818.97;5034629;28;20071;-63
2022/03/22 01:00:34;;;;;;;18.25;10.43;;;;;;;15.50;39.50;102824.38;5034452;28;20025;-63
2022/03/22 01:03:01;;;;;;;18.95;9.82;;;;;;;15.48;39.67;102826.31;5017737;28;20032;-64
2022/03/22 01:05:28;;;;;;;17.90;9.75;;;;;;;15.46;40.32;102833.69;5036430;28;20031;-64
2022/03/22 01:07:57;;;;;;;22.63;9.93;;;;;;;15.40;40.84;102822.41;5034659;28;20026;-64
2022/03/22 01:10:25;;;;;;;20.52;9.85;;;;;;;15.40;40.51;102828.69;5017734;28;20533;-63
2022/03/22 01:12:51;;;;;;;19.58;9.48;;;;;;;15.34;40.41;102812.94;5018491;28;20387;-64
2022/03/22 01:15:18;;;;;;;21.50;10.50;;;;;;;15.34;40.65;102823.72;5018612;28;20021;-64
2022/03/22 01:17:50;;;;;;;19.77;9.73;;;;;;;15.33;39.42;102827.38;5034104;28;20133;-63
2022/03/22 01:20:16;;;;;;;20.27;9.73;;;;;;;15.31;39.71;102829.34;5035427;28;20100;-64
2022/03/22 01:22:44;;;;;;;19.85;9.23;;;;;;;15.26;39.66;102819.84;5034258;28;20108;-64
2022/03/22 01:25:13;;;;;;;21.48;9.50;;;;;;;15.24;39.80;102828.06;5035741;28;20104;-64
2022/03/22 01:27:39;;;;;;;24.80;9.25;;;;;;;15.18;39.67;102816.84;5018023;28;20120;-63
2022/03/22 01:30:07;;;;;;;25.90;9.25;;;;;;;15.16;40.88;102819.63;5034236;28;20052;-63
2022/03/22 01:32:34;;;;;;;19.58;10.45;;;;;;;15.14;40.60;102816.19;5017720;28;20032;-64
2022/03/22 01:35:01;;;;;;;29.45;10.30;;;;;;;15.07;40.20;102814.91;5017614;28;20442;-64
2022/03/22 01:37:27;;;;;;;20.63;9.98;;;;;;;15.08;40.12;102819.31;5017684;28;20056;-64
2022/03/22 01:39:52;;;;;;;27.63;9.93;;;;;;;15.03;41.14;102818.78;5033847;28;20476;-64
2022/03/22 01:42:21;;;;;;;21.42;9.43;;;;;;;15.01;39.78;102820.75;5033786;28;20025;-64
2022/03/22 01:44:48;;;;;;;20.13;9.80;;;;;;;14.98;40.58;102818.25;5018033;28;20099;-63
2022/03/22 01:47:16;;;;;;;21.58;10.38;;;;;;;14.97;41.26;102819.22;5017251;28;20022;-63
2022/03/22 01:49:43;;;;;;;18.10;8.80;;;;;;;14.92;39.55;102816.00;5034428;28;20041;-63
2022/03/22 01:52:14;;;;;;;20.30;10.52;;;;;;;14.90;39.94;102816.13;5016815;28;20488;-64
2022/03/22 01:54:41;;;;;;;18.30;8.63;;;;;;;14.88;39.74;102814.50;5016868;28;20029;-63
2022/03/22 01:57:07;;;;;;;18.40;8.63;;;;;;;14.86;40.65;102821.81;5033388;28;20033;-63
2022/03/22 01:59:34;;;;;;;15.85;8.77;;;;;;;14.78;41.15;102808.00;5017046;28;20028;-63
2022/03/22 02:07:37;;;;;;;19.73;9.02;;;;;;;14.70;40.48;102810.38;5033376;28;20040;-63
2022/03/22 02:10:03;;;;;;;18.40;8.93;;;;;;;14.67;40.22;102810.59;5034533;28;20116;-64
2022/03/22 02:12:29;;;;;;;17.05;8.68;;;;;;;14.66;40.02;102811.56;5033456;28;20029;-64
2022/03/22 02:14:55;;;;;;;20.02;8.40;;;;;;;14.62;39.83;102810.94;5034869;28;20539;-63
2022/03/22 02:17:22;;;;;;;16.95;8.65;;;;;;;14.58;40.57;102810.28;5016913;28;20056;-64
2022/03/22 02:19:48;;;;;;;15.68;8.82;;;;;;;14.52;40.75;102802.59;5032540;28;20246;-64
2022/03/22 02:22:17;;;;;;;16.08;9.05;;;;;;;14.52;41.08;102796.34;5016885;28;20029;-64
2022/03/22 02:24:43;;;;;;;15.30;8.73;;;;;;;14.49;39.95;102802.81;5034564;28;20391;-63
2022/03/22 02:27:10;;;;;;;24.95;9.70;;;;;;;14.46;41.13;102800.31;5033005;28;20399;-63
2022/03/22 02:29:37;;;;;;;20.02;10.30;;;;;;;14.43;40.66;102802.38;5016874;28;20021;-63
2022/03/22 02:32:03;;;;;;;24.27;9.50;;;;;;;14.40;40.13;102798.06;5033135;28;20029;-63
2022/03/22 02:34:30;;;;;;;21.30;9.35;;;;;;;14.38;39.97;102794.59;5016435;28;20029;-63
2022/03/22 02:36:59;;;;;;;18.08;8.68;;;;;;;14.34;40.30;102801.19;5033989;28;20036;-63
2022/03/22 02:39:25;;;;;;;18.05;9.00;;;;;;;14.32;40.39;102805.78;5016159;28;20021;-63
2022/03/22 02:41:52;;;;;;;16.27;9.52;;;;;;;14.29;40.55;102800.56;5034080;28;20101;-63
2022/03/22 02:44:21;;;;;;;19.85;8.73;;;;;;;14.24;40.67;102799.16;5016126;28;20086;-63
2022/03/22 02:46:47;;;;;;;26.98;9.73;;;;;;;14.24;40.64;102805.44;5032710;28;20056;-64
2022/03/22 02:49:13;;;;;;;16.67;8.68;;;;;;;14.19;41.51;102804.00;5032439;28;20030;-64
2022/03/22 02:51:40;;;;;;;17.80;9.18;;;;;;;14.21;41.80;102807.50;5032265;28;20054;-63
2022/03/22 02:54:07;;;;;;;19.15;9.60;;;;;;;14.19;40.25;102807.56;5032410;28;20376;-64
2022/03/22 02:56:33;;;;;;;16.05;8.18;;;;;;;14.18;40.46;102813.09;5015906;28;20029;-63
2022/03/22 02:59:01;;;;;;;15.93;8.57;;;;;;;14.16;41.14;102805.09;5032694;28;20033;-63
2022/03/22 03:01:27;;;;;;;18.75;9.18;;;;;;;14.07;40.82;102800.31;5016098;28;20032;-63
2022/03/22 03:03:53;;;;;;;17.92;8.48;;;;;;;14.12;41.06;102808.97;5016290;28;20483;-63
2022/03/22 03:06:19;;;;;;;14.25;8.25;;;;;;;14.07;41.11;102797.63;5032376;28;20025;-64
2022/03/22 03:08:44;;;;;;;15.73;8.38;;;;;;;14.03;40.96;102806.88;5034179;28;20025;-64
2022/03/22 03:11:12;;;;;;;15.60;7.63;;;;;;;13.98;40.52;102807.22;5033416;28;20026;-64
2022/03/22 03:16:22;;;;;;;17.58;8.32;;;;;;;13.93;40.99;102814.72;5032596;28;20051;-63
2022/03/22 03:18:49;;;;;;;18.92;8.73;;;;;;;13.88;40.78;102805.22;5032612;28;20041;-63
2022/03/22 03:21:14;;;;;;;17.08;8.70;;;;;;;13.87;40.76;102815.13;5032455;28;20101;-64
2022/03/22 03:23:40;;;;;;;21.88;9.25;;;;;;;13.85;40.53;102818.88;5033583;28;20049;-63
2022/03/22 03:26:06;;;;;;;20.20;9.02;;;;;;;13.82;40.32;102819.94;5033760;28;20056;-63
2022/03/22 03:28:32;;;;;;;18.10;8.73;;;;;;;13.82;41.40;102822.63;5033467;28;20018;-64
2022/03/22 03:30:58;;;;;;;13.20;7.50;;;;;;;13.79;41.24;102811.22;5016078;28;20458;-63
2022/03/22 03:33:25;;;;;;;21.63;9.05;;;;;;;13.75;40.45;102817.75;5035814;28;20554;-63
2022/03/22 03:35:51;;;;;;;24.35;8.85;;;;;;;13.72;40.91;102815.28;5036945;28;20108;-63
2022/03/22 03:38:17;;;;;;;15.88;8.43;;;;;;;13.69;40.56;102827.13;5019809;28;20034;-63
2022/03/22 03:43:27;;;;;;;17.60;9.23;;;;;;;13.62;41.51;102825.81;5036134;28;20063;-64
2022/03/22 03:48:37;;;;;;;14.93;7.03;;;;;;;13.60;41.68;102824.16;5037145;28;20514;-64
2022/03/22 03:51:03;;;;;;;20.25;8.38;;;;;;;13.60;41.65;102825.00;5037140;28;20124;-64
2022/03/22 03:53:28;;;;;;;16.95;8.00;;;;;;;13.58;41.72;102826.06;5036941;28;20060;-63
2022/03/22 03:55:54;;;;;;;16.70;8.27;;;;;;;13.55;41.12;102821.75;5019366;28;20376;-64
2022/03/22 03:58:19;;;;;;;14.77;7.38;;;;;;;13.50;41.75;102821.19;5035393;28;20017;-63
2022/03/22 04:00:45;;;;;;;15.43;8.73;;;;;;;13.51;41.73;102830.16;5035372;28;20026;-63
2022/03/22 04:03:10;;;;;;;18.80;8.40;;;;;;;13.50;41.57;102837.34;5036777;28;20060;-64
2022/03/22 04:05:35;;;;;;;19.77;8.68;;;;;;;13.50;40.79;102833.78;5036866;28;20100;-64
2022/03/22 04:08:01;;;;;;;15.40;7.68;;;;;;;13.45;41.55;102833.22;5036617;28;20029;-64
2022/03/22 04:10:26;;;;;;;14.35;7.25;;;;;;;13.48;41.51;102847.38;5035358;28;20021;-63
2022/03/22 04:12:52;;;;;;;17.10;8.45;;;;;;;13.46;41.91;102846.56;5036638;28;20025;-64
2022/03/22 04:15:18;;;;;;;18.70;8.02;;;;;;;13.45;41.11;102844.00;5035388;28;20025;-63
2022/03/22 04:17:43;;;;;;;12.18;6.97;;;;;;;13.39;42.08;102848.81;5036550;28;20124;-63
2022/03/22 04:20:09;;;;;;;16.77;8.32;;;;;;;13.43;40.97;102850.34;5036430;28;20526;-64
2022/03/22 04:22:35;;;;;;;16.13;8.45;;;;;;;13.42;40.98;102845.06;5035485;28;20030;-64
2022/03/22 04:25:01;;;;;;;18.70;7.95;;;;;;;13.43;41.19;102845.94;5036372;28;20025;-63
2022/03/22 04:32:54;;;;;;;18.88;8.25;;;;;;;13.37;40.99;102848.03;5036455;28;20174;-63
2022/03/22 04:35:25;;;;;;;15.85;8.95;;;;;;;13.34;41.16;102845.53;5036204;28;20052;-63
2022/03/22 04:37:52;;;;;;;20.00;8.00;;;;;;;13.32;41.19;102847.47;5035393;28;20036;-63
2022/03/22 04:40:18;;;;;;;20.35;8.90;;;;;;;13.30;40.91;102849.38;5036234;28;20029;-63
2022/03/22 04:42:44;;;;;;;19.80;9.15;;;;;;;13.28;41.21;102848.63;5035530;28;20028;-63
2022/03/22 04:45:10;;;;;;;16.77;7.75;;;;;;;13.28;41.10;102848.63;5035153;28;20030;-63
2022/03/22 04:47:35;;;;;;;14.30;7.93;;;;;;;13.28;41.63;102850.47;5036196;28;20117;-63
2022/03/22 04:50:05;;;;;;;17.00;8.70;;;;;;;13.28;41.54;102853.16;5034939;28;20129;-63
2022/03/22 04:57:59;;;;;;;14.13;8.38;;;;;;;13.22;41.04;102843.63;5035220;28;20107;-63
2022/03/22 05:00:25;;;;;;;16.50;7.85;;;;;;;13.20;41.64;102850.94;5034926;28;20026;-63
2022/03/22 05:02:50;;;;;;;18.00;8.23;;;;;;;13.25;41.73;102853.34;5036663;28;20026;-63
2022/03/22 05:06:25;;;;;;;21.98;9.45;;;;;;;13.22;41.14;102857.09;5036316;28;20033;-63
2022/03/22 05:08:01;;;;;;;16.83;7.82;;;;;;;13.22;41.84;102854.41;5035955;28;20025;-64
2022/03/22 05:10:27;;;;;;;24.75;9.65;;;;;;;13.23;41.36;102855.28;5034636;28;20032;-63
2022/03/22 05:12:52;;;;;;;24.73;8.07;;;;;;;13.24;41.45;102859.66;5034785;28;20395;-64
2022/03/22 05:15:17;;;;;;;18.30;8.48;;;;;;;13.22;41.53;102862.47;5036147;28;20029;-63
2022/03/22 05:17:43;;;;;;;21.88;8.68;;;;;;;13.21;41.17;102863.41;5036045;28;20104;-63
2022/03/22 05:20:08;;;;;;;23.42;8.50;;;;;;;13.22;41.83;102869.69;5035969;28;20025;-63
2022/03/22 05:22:35;;;;;;;14.95;8.65;;;;;;;13.23;41.13;102874.94;5035808;28;20021;-64
2022/03/22 05:25:01;;;;;;;18.20;8.32;;;;;;;13.19;41.94;102868.03;5034305;28;20030;-63
2022/03/22 05:27:27;;;;;;;14.52;7.63;;;;;;;13.22;41.70;102875.06;5035609;28;20036;-63
2022/03/22 05:29:52;;;;;;;20.15;8.25;;;;;;;13.20;42.10;102877.84;5035557;28;20029;-63
2022/03/22 05:32:18;;;;;;;17.55;8.15;;;;;;;13.17;41.92;102875.34;5036372;28;20399;-63
2022/03/22 05:34:44;;;;;;;17.02;7.43;;;;;;;13.20;41.76;102883.25;5034647;28;20507;-63
2022/03/22 05:37:10;;;;;;;17.48;7.63;;;;;;;13.18;41.86;102873.50;5035181;28;20021;-64
2022/03/22 05:39:35;;;;;;;17.88;7.57;;;;;;;13.18;41.54;102879.75;5034251;28;20021;-63
2022/03/22 05:42:01;;;;;;;17.20;9.07;;;;;;;13.13;41.84;102868.41;5017770;28;20475;-64
2022/03/22 05:44:26;;;;;;;21.25;7.82;;;;;;;13.19;41.67;102875.25;5033990;28;20502;-63
2022/03/22 05:46:51;;;;;;;17.13;7.55;;;;;;;13.14;41.12;102863.91;5035036;28;20556;-63
2022/03/22 05:49:17;;;;;;;17.85;8.02;;;;;;;13.14;42.03;102864.78;5034794;28;20025;-63
2022/03/22 05:51:42;;;;;;;20.10;8.10;;;;;;;13.22;41.68;102881.31;5034830;28;20029;-63
2022/03/22 05:54:08;;;;;;;22.80;9.80;;;;;;;13.23;42.05;102877.63;5034628;28;20064;-63
2022/03/22 05:56:33;;;;;;;19.45;9.10;;;;;;;13.25;41.60;102882.94;5034188;28;20033;-63
2022/03/22 05:58:59;;;;;;;20.83;9.13;;;;;;;13.24;41.23;102874.00;5035065;28;20083;-63
2022/03/22 06:01:27;;;;;;;19.40;9.55;;;;;;;13.27;41.52;102876.50;5035319;28;20025;-63
2022/03/22 06:03:52;;;;;;;15.07;7.70;;;;;;;13.33;42.15;102886.88;5034857;28;20471;-63
2022/03/22 06:06:17;;;;;;;19.92;8.48;;;;;;;13.36;41.12;102884.00;5017147;28;20025;-63
2022/03/22 06:08:44;;;;;;;17.95;9.32;;;;;;;13.40;41.55;102880.13;5034609;28;20033;-63
2022/03/22 06:11:10;;;;;;;18.95;8.68;;;;;;;13.46;41.09;102886.09;5034404;28;20101;-63
2022/03/22 06:13:35;;;;;;;17.92;8.65;;;;;;;13.50;42.16;102888.50;5034668;28;20033;-63
2022/03/22 06:16:00;;;;;;;16.92;8.30;;;;;;;13.58;41.33;102882.63;5033350;28;20063;-63
2022/03/22 06:18:26;;;;;;;23.20;9.25;;;;;;;13.68;41.51;102883.78;5034461;28;20025;-63
2022/03/22 06:20:51;;;;;;;18.58;8.80;;;;;;;13.82;42.13;102886.41;5034431;28;20578;-63
2022/03/22 06:23:17;;;;;;;22.45;9.30;;;;;;;13.98;41.97;102887.19;5034364;28;20553;-63
2022/03/22 06:25:43;;;;;;;25.40;11.07;;;;;;;14.10;42.21;102880.94;5034286;28;20026;-64
2022/03/22 06:28:09;;;;;;;17.63;8.80;;;;;;;14.27;41.03;102893.31;5016855;28;20151;-63
2022/03/22 06:30:35;;;;;;;19.42;9.65;;;;;;;14.42;41.96;102886.94;5032967;28;20022;-63
2022/03/22 06:33:08;;;;;;;20.98;9.48;;;;;;;14.56;41.35;102890.44;5034226;28;20029;-63
2022/03/22 06:35:33;;;;;;;21.23;10.10;;;;;;;14.65;41.14;102878.16;5033890;28;20021;-64
2022/03/22 06:38:00;;;;;;;17.95;10.05;;;;;;;14.83;41.94;102887.66;5034234;28;20494;-64
2022/03/22 06:40:28;;;;;;;23.00;10.10;;;;;;;15.02;40.79;102892.63;5034279;28;20374;-64
2022/03/22 06:42:55;;;;;;;20.40;9.70;;;;;;;15.18;40.61;102890.59;5033964;28;20021;-63
2022/03/22 06:45:20;;;;;;;21.02;9.55;;;;;;;15.36;40.57;102894.69;5033954;28;20033;-63
2022/03/22 06:47:46;;;;;;;24.63;10.27;;;;;;;15.52;40.60;102898.03;5032602;28;20025;-62
2022/03/22 06:50:13;;;;;;;16.83;8.73;;;;;;;15.68;40.20;102895.97;5033676;28;20503;-64
2022/03/22 06:52:38;;;;;;;19.92;9.23;;;;;;;15.89;41.46;102900.75;5033795;28;20033;-64
2022/03/22 06:55:05;;;;;;;21.17;10.63;;;;;;;16.07;40.24;102897.59;5032517;28;20047;-64
2022/03/22 06:57:32;;;;;;;27.17;9.50;;;;;;;16.15;41.10;102880.78;5032784;28;20032;-64
2022/03/22 06:59:58;;;;;;;21.08;10.20;;;;;;;16.45;41.04;102900.09;5032845;28;20014;-63
2022/03/22 07:02:24;;;;;;;29.75;10.85;;;;;;;16.63;41.38;102890.63;5034264;28;20025;-64
2022/03/22 07:04:49;;;;;;;18.52;9.95;;;;;;;16.81;40.05;102902.72;5032966;28;20433;-64
2022/03/22 07:07:15;;;;;;;22.30;9.95;;;;;;;16.99;41.47;102900.44;5036890;28;20022;-64
2022/03/22 07:09:42;;;;;;;23.25;10.65;;;;;;;17.17;39.84;102901.69;5038033;28;20116;-64
2022/03/22 07:12:08;;;;;;;29.38;11.05;;;;;;;17.35;40.70;102896.66;5037003;28;20387;-64
2022/03/22 07:14:33;;;;;;;22.40;9.68;;;;;;;17.55;40.23;102895.09;5037953;28;20029;-64
2022/03/22 07:17:00;;;;;;;22.25;9.93;;;;;;;17.72;40.45;102900.88;5037933;28;20026;-64
2022/03/22 07:19:25;;;;;;;21.15;10.63;;;;;;;17.89;40.76;102903.09;5020264;28;20033;-64
2022/03/22 07:21:51;;;;;;;21.63;10.15;;;;;;;18.11;39.80;102907.59;5037584;28;20026;-64
2022/03/22 07:24:20;;;;;;;20.50;10.82;;;;;;;18.26;39.74;102900.00;5037820;28;20037;-64
2022/03/22 07:26:46;;;;;;;20.90;9.68;;;;;;;18.45;39.60;102900.22;5037872;28;20475;-64
2022/03/22 07:29:13;;;;;;;24.30;10.70;;;;;;;18.69;39.18;102906.28;5037342;28;20056;-65
2022/03/22 07:31:39;;;;;;;20.05;10.35;;;;;;;18.90;39.33;102912.59;5036779;28;20057;-64
2022/03/22 07:34:10;;;;;;;20.45;10.75;;;;;;;19.04;39.17;102898.66;5038884;28;20029;-64
2022/03/22 07:36:37;;;;;;;23.47;12.03;;;;;;;19.29;39.26;102912.84;5038619;28;20104;-66
2022/03/22 07:39:03;;;;;;;24.45;10.88;;;;;;;19.47;38.68;102894.94;5037219;28;20026;-64
2022/03/22 07:41:29;;;;;;;21.15;10.85;;;;;;;19.71;39.27;102906.31;5037173;28;20471;-64
2022/03/22 07:43:54;;;;;;;19.83;10.32;;;;;;;19.88;38.56;102902.94;5038216;28;20096;-64
2022/03/22 07:46:23;;;;;;;18.73;9.10;;;;;;;20.04;38.29;102914.19;5036622;28;20021;-64
2022/03/22 07:48:50;;;;;;;20.38;10.52;;;;;;;20.17;38.61;102908.47;5037964;28;20060;-64
2022/03/22 07:54:00;;;;;;;27.00;12.20;;;;;;;20.54;38.04;102914.13;5036739;28;20052;-64
2022/03/22 07:56:26;;;;;;;25.83;10.93;;;;;;;20.73;37.95;102908.66;5037672;28;20021;-64
2022/03/22 07:58:51;;;;;;;20.83;9.80;;;;;;;20.91;37.89;102901.47;5037555;28;20033;-64
2022/03/22 08:01:17;;;;;;;22.83;11.10;;;;;;;21.15;37.23;102907.34;5037279;28;20025;-64
2022/03/22 08:03:42;;;;;;;17.08;10.57;;;;;;;21.34;36.97;102912.75;5036647;28;20025;-65
2022/03/22 08:06:08;;;;;;;23.75;10.85;;;;;;;21.58;37.38;102914.09;5036903;28;20135;-64
2022/03/22 08:08:35;;;;;;;16.50;9.68;;;;;;;21.80;36.40;102908.25;5035296;28;20040;-64
2022/03/22 08:11:02;;;;;;;18.85;10.02;;;;;;;22.03;36.17;102906.81;5036356;28;20025;-64
2022/03/22 08:13:27;;;;;;;25.23;10.57;;;;;;;22.27;36.97;102912.59;5036058;28;20022;-65
2022/03/22 08:15:53;;;;;;;21.40;10.73;;;;;;;22.48;36.80;102901.34;5034813;28;20037;-65
2022/03/22 08:18:18;;;;;;;27.05;10.85;;;;;;;22.71;35.90;102907.22;5034172;28;20032;-63
2022/03/22 08:20:44;;;;;;;21.90;10.80;;;;;;;22.90;36.39;102902.41;5035952;28;20079;-64
2022/03/22 08:23:09;;;;;;;27.58;10.30;;;;;;;23.12;35.16;102911.97;5035924;28;20083;-64
2022/03/22 08:25:38;;;;;;;26.38;11.00;;;;;;;23.32;35.69;102908.00;5035994;28;20018;-64
2022/03/22 08:28:07;;;;;;;17.95;10.25;;;;;;;23.50;34.99;102911.59;5035758;28;20031;-64
2022/03/22 08:30:33;;;;;;;18.50;11.18;;;;;;;23.63;35.44;102902.91;5035783;28;20411;-64
2022/03/22 08:33:00;;;;;;;23.58;10.25;;;;;;;23.83;35.09;102907.09;5034684;28;20546;-64
2022/03/22 08:35:27;;;;;;;19.70;10.68;;;;;;;24.02;35.58;102905.97;5035981;28;20021;-64
2022/03/22 08:37:53;;;;;;;24.73;10.60;;;;;;;24.20;34.53;102906.75;5035555;28;20068;-64
2022/03/22 08:40:19;;;;;;;19.60;10.40;;;;;;;24.32;34.42;102898.03;5035797;28;20026;-64
2022/03/22 08:42:47;;;;;;;21.80;11.90;;;;;;;24.53;34.41;102908.50;5035501;28;20116;-63
2022/03/22 08:45:18;;;;;;;20.55;11.15;;;;;;;24.72;34.29;102901.84;5034044;28;20036;-64
2022/03/22 08:47:45;;;;;;;22.52;12.70;;;;;;;24.92;33.80;102905.97;5035317;28;20387;-64
2022/03/22 08:50:13;;;;;;;22.33;11.00;;;;;;;25.13;33.75;102897.19;5035400;28;20049;-64
2022/03/22 08:52:39;;;;;;;20.70;11.35;;;;;;;25.32;34.08;102897.66;5035494;28;20063;-64
2022/03/22 08:55:07;;;;;;;20.25;11.18;;;;;;;25.55;33.43;102896.94;5034258;28;20036;-64
2022/03/22 08:57:34;;;;;;;21.33;10.82;;;;;;;25.74;33.87;102902.03;5033988;28;20026;-64
2022/03/22 08:59:59;;;;;;;19.85;10.85;;;;;;;25.96;33.11;102896.59;5033906;28;20025;-63
2022/03/22 09:02:25;;;;;;;25.00;11.50;;;;;;;26.14;33.23;102901.00;5035130;28;20384;-64
2022/03/22 09:07:34;;;;;;;23.02;12.07;;;;;;;26.54;32.45;102892.47;5034937;28;20526;-64
2022/03/22 09:09:59;;;;;;;22.40;10.65;;;;;;;26.78;32.80;102886.78;5033496;28;20025;-64
2022/03/22 09:12:25;;;;;;;20.27;11.90;;;;;;;26.95;32.30;102893.84;5033619;28;20455;-64
2022/03/22 09:14:53;;;;;;;21.17;11.13;;;;;;;27.15;32.24;102895.03;5034894;28;20479;-64
2022/03/22 09:17:21;;;;;;;24.23;10.93;;;;;;;27.33;31.23;102886.41;5034727;28;20025;-64
2022/03/22 09:19:47;;;;;;;18.33;10.60;;;;;;;27.50;31.90;102892.63;5034958;28;20033;-64
2022/03/22 09:22:14;;;;;;;20.90;11.30;;;;;;;27.61;31.16;102879.22;5034663;28;20443;-64
2022/03/22 09:24:39;;;;;;;17.65;10.07;;;;;;;27.82;30.76;102881.19;5034646;28;20040;-64
2022/03/22 09:27:05;;;;;;;23.08;11.48;;;;;;;27.94;30.57;102874.13;5033479;28;20025;-64
2022/03/22 09:29:30;;;;;;;18.85;10.38;;;;;;;28.10;30.23;102876.69;5033407;28;20498;-64
2022/03/22 09:31:56;;;;;;;19.63;10.82;;;;;;;28.23;30.89;102878.72;5034489;28;20098;-64
2022/03/22 09:34:23;;;;;;;18.75;11.43;;;;;;;28.39;29.86;102883.16;5034350;28;20032;-64
2022/03/22 09:36:48;;;;;;;24.92;11.75;;;;;;;28.50;29.82;102877.97;5033396;28;20643;-64
2022/03/22 09:39:13;;;;;;;19.88;10.43;;;;;;;28.63;29.70;102874.50;5033245;28;20048;-64
2022/03/22 09:41:39;;;;;;;19.15;11.40;;;;;;;28.76;29.28;102878.22;5034379;28;20018;-63
2022/03/22 09:44:04;;;;;;;17.30;10.38;;;;;;;29.03;28.54;102884.81;5033124;28;20479;-64
2022/03/22 09:46:32;;;;;;;19.40;11.10;;;;;;;29.41;28.98;102871.50;5034166;28;20017;-64
2022/03/22 09:48:58;;;;;;;24.65;11.10;;;;;;;30.05;28.13;102866.50;5034461;28;20410;-62
2022/03/22 09:54:07;;;;;;;23.42;11.27;;;;;;;33.02;24.73;102862.66;5034404;28;20048;-62
2022/03/22 09:56:33;;;;;;;21.98;11.02;;;;;;;32.42;25.22;102862.25;5034020;28;20021;-61
2022/03/22 09:58:59;;;;;;;18.90;10.85;;;;;;;32.10;26.49;102866.13;5034098;28;20026;-62
2022/03/22 10:01:25;;;;;;;23.55;11.52;;;;;;;31.92;26.18;102852.09;5033895;28;20020;-62
2022/03/22 10:04:07;;;;;;;20.50;10.77;;;;;;;32.00;25.54;102854.59;5034153;28;20025;-61
2022/03/22 10:06:33;;;;;;;22.13;10.85;;;;;;;32.16;25.55;102856.91;5034103;28;20479;-62
2022/03/22 10:09:00;;;;;;;18.13;10.50;;;;;;;32.35;25.04;102855.91;5033830;28;20033;-62
2022/03/22 10:11:40;;;;;;;26.25;11.25;;;;;;;32.56;24.77;102847.25;5033678;28;20025;-61
2022/03/22 10:14:08;;;;;;;21.35;11.10;;;;;;;32.75;24.18;102849.00;5034012;28;20025;-62
2022/03/22 10:16:45;;;;;;;14.90;9.35;;;;;;;33.05;23.84;102845.53;5032508;28;20029;-61
2022/03/22 10:19:43;;;;;;;18.13;11.18;;;;;;;33.45;24.07;102846.78;5033664;28;20568;-62
2022/03/22 10:22:12;;;;;;;18.63;10.60;;;;;;;33.71;24.28;102840.94;5019849;28;20113;-62
2022/03/22 10:24:45;;;;;;;17.50;9.88;;;;;;;33.98;22.83;102836.72;5034035;28;20029;-62
2022/03/22 10:27:20;;;;;;;19.35;10.20;;;;;;;34.20;22.31;102844.56;5033803;28;20522;-62
2022/03/22 10:29:45;;;;;;;18.02;9.70;;;;;;;34.38;22.52;102837.00;5033478;28;20018;-62
2022/03/22 10:32:11;;;;;;;12.82;9.07;;;;;;;34.59;22.65;102838.41;5033520;28;20032;-61
2022/03/22 10:34:36;;;;;;;17.35;9.25;;;;;;;34.83;22.09;102828.97;5033382;28;20033;-62
2022/03/22 10:37:02;;;;;;;17.20;9.93;;;;;;;35.04;22.10;102831.13;5033354;28;20204;-62
2022/03/22 10:39:27;;;;;;;18.17;9.13;;;;;;;35.23;21.94;102828.25;5032179;28;20048;-62
2022/03/22 10:42:03;;;;;;;17.38;9.20;;;;;;;35.46;21.49;102820.66;5031701;28;20427;-62
2022/03/22 10:44:34;;;;;;;13.82;8.40;;;;;;;35.60;20.95;102824.03;5033256;28;20044;-62
2022/03/22 10:47:02;;;;;;;16.75;8.38;;;;;;;35.77;21.52;102824.94;5033281;28;20476;-62
2022/03/22 10:49:28;;;;;;;15.30;8.48;;;;;;;35.91;20.94;102825.50;5033504;28;20087;-62
2022/03/22 10:51:56;;;;;;;16.50;8.38;;;;;;;35.93;20.63;102826.94;5033123;28;20049;-61
2022/03/22 10:54:22;;;;;;;16.67;9.85;;;;;;;36.02;20.55;102819.91;5033107;28;20117;-62
2022/03/22 10:56:49;;;;;;;13.95;8.55;;;;;;;36.14;20.08;102823.47;5033064;28;20049;-62
2022/03/22 10:59:19;;;;;;;15.65;9.02;;;;;;;36.21;19.95;102812.16;5033196;28;20376;-62
2022/03/22 11:01:46;;;;;;;17.73;10.55;;;;;;;36.32;19.89;102811.25;5034427;28;20035;-62
2022/03/22 11:04:15;;;;;;;18.05;9.13;;;;;;;36.38;20.36;102803.81;5033135;28;20057;-62
2022/03/22 11:06:41;;;;;;;18.17;10.57;;;;;;;36.51;20.00;102804.34;5033074;28;20045;-62
2022/03/22 11:09:06;;;;;;;19.33;12.25;;;;;;;36.57;20.86;102810.84;5033052;28;20036;-62
2022/03/22 11:11:32;;;;;;;19.92;11.70;;;;;;;36.60;20.34;102808.38;5032950;28;20022;-62
2022/03/22 11:13:58;;;;;;;18.05;10.93;;;;;;;36.53;20.70;102806.84;5031918;28;20029;-62
2022/03/22 11:16:29;;;;;;;17.52;11.00;;;;;;;36.51;20.28;102800.69;5032957;28;20025;-62
2022/03/22 11:19:01;;;;;;;21.92;11.00;;;;;;;36.52;20.11;102816.34;5033017;28;20021;-62
2022/03/22 11:21:28;;;;;;;21.10;11.15;;;;;;;36.54;20.05;102803.81;5031880;28;20033;-62
2022/03/22 11:24:10;;;;;;;21.50;10.48;;;;;;;36.55;20.00;102793.47;5032979;28;20025;-62
2022/03/22 11:26:46;;;;;;;21.15;11.43;;;;;;;36.53;19.99;102801.28;5032924;28;20022;-62
2022/03/22 11:29:14;;;;;;;18.80;10.00;;;;;;;36.42;20.42;102800.22;5033110;28;20017;-62
2022/03/22 11:31:40;;;;;;;19.38;11.43;;;;;;;36.37;20.32;102797.38;5032757;28;20040;-62
2022/03/22 11:34:09;;;;;;;24.00;11.10;;;;;;;36.38;19.96;102799.03;5031906;28;20044;-62
2022/03/22 11:36:53;;;;;;;17.23;9.27;;;;;;;36.29;19.77;102791.34;5031640;28;20033;-62
2022/03/22 11:42:15;;;;;;;18.92;10.20;;;;;;;36.29;19.69;102791.34;5033086;28;20095;-63
2022/03/22 11:42:24;;;;;;;17.95;10.10;;;;;;;36.31;19.68;102797.50;5032764;28;20025;-63
2022/03/22 11:44:58;;;;;;;17.55;9.55;;;;;;;36.24;19.57;102791.25;5033002;28;20025;-62
2022/03/22 11:47:25;;;;;;;23.92;10.43;;;;;;;36.32;19.75;102793.63;5032773;28;20382;-62